createdAt,value
2022-07-25T00:00:22.178Z,99.2
2022-07-25T00:05:24.539Z,99.2
2022-07-25T00:10:27.330Z,99.2
2022-07-25T00:15:29.675Z,99.2
2022-07-25T00:20:31.962Z,99.2
2022-07-25T00:25:34.578Z,99.1
2022-07-25T00:30:37.066Z,99.4
2022-07-25T00:35:39.357Z,99.8
2022-07-25T00:40:41.714Z,99.9
2022-07-25T00:45:44.153Z,99.9
2022-07-25T00:50:46.663Z,99.9
2022-07-25T00:55:49.838Z,99.9
2022-07-25T01:00:52.178Z,99.9
2022-07-25T01:05:56.807Z,99.9
2022-07-25T01:11:00.092Z,99.9
2022-07-25T01:16:02.924Z,99.9
2022-07-25T01:21:05.726Z,99.9
2022-07-25T01:26:09.095Z,99.9
2022-07-25T01:31:11.876Z,99.9
2022-07-25T01:36:14.913Z,99.9
2022-07-25T01:41:26.104Z,99.9
2022-07-25T01:46:19.263Z,99.9
2022-07-25T01:51:27.334Z,99.9
2022-07-25T01:56:34.222Z,99.9
2022-07-25T02:01:37.190Z,99.9
2022-07-25T02:06:39.996Z,99.9
2022-07-25T02:11:42.670Z,99.9
2022-07-25T02:16:45.525Z,99.9
2022-07-25T02:21:48.284Z,99.9
2022-07-25T02:26:51.123Z,99.9
2022-07-25T02:31:53.927Z,99.9
2022-07-25T02:36:56.202Z,99.9
2022-07-25T02:41:59.291Z,99.9
2022-07-25T02:47:01.987Z,99.9
2022-07-25T02:52:04.992Z,99.9
2022-07-25T02:57:07.754Z,99.9
2022-07-25T03:02:10.939Z,99.9
2022-07-25T03:07:13.299Z,99.9
2022-07-25T03:12:15.947Z,99.9
2022-07-25T03:17:18.521Z,99.9
2022-07-25T03:22:21.277Z,99.9
2022-07-25T03:27:24.327Z,99.9
2022-07-25T03:32:26.639Z,99.9
2022-07-25T03:37:28.867Z,99.9
2022-07-25T03:42:37.818Z,99.9
2022-07-25T03:52:41.701Z,99.9
2022-07-25T03:57:44.294Z,99.9
2022-07-25T04:02:47.166Z,99.9
2022-07-25T04:07:51.387Z,99.9
2022-07-25T04:12:54.321Z,99.9
2022-07-25T04:17:58.292Z,99.9
2022-07-25T04:23:00.558Z,99.9
2022-07-25T04:28:03.277Z,99.9
2022-07-25T04:33:05.534Z,99.9
2022-07-25T04:38:14.839Z,99.9
2022-07-25T04:43:17.165Z,99.9
2022-07-25T04:48:19.625Z,99.9
2022-07-25T04:53:21.938Z,99.9
2022-07-25T04:58:24.553Z,99.9
2022-07-25T05:03:26.840Z,99.9
2022-07-25T05:08:29.132Z,99.9
2022-07-25T05:13:32.059Z,99.9
2022-07-25T05:18:34.680Z,99.9
2022-07-25T05:23:36.972Z,99.9
2022-07-25T05:28:39.744Z,99.6
2022-07-25T05:33:42.473Z,99.6
2022-07-25T05:38:45.085Z,99.4
2022-07-25T05:43:47.757Z,98.8
2022-07-25T05:48:50.549Z,98.5
2022-07-25T05:53:52.880Z,98.5
2022-07-25T05:58:55.149Z,98.4
2022-07-25T06:03:57.505Z,97.7
2022-07-25T06:09:01.821Z,97
2022-07-25T06:14:00.683Z,97
2022-07-25T06:19:03.217Z,96.7
2022-07-25T06:24:07.289Z,96.1
2022-07-25T06:29:10.236Z,95.6
2022-07-25T06:34:13.563Z,95.5
2022-07-25T06:39:15.901Z,95.4
2022-07-25T06:44:19.055Z,94
2022-07-25T06:49:21.599Z,94.2
2022-07-25T06:54:24.076Z,94.1
2022-07-25T06:59:26.745Z,92.7
2022-07-25T07:04:29.179Z,92.3
2022-07-25T07:09:31.920Z,92
2022-07-25T07:14:34.791Z,91.4
2022-07-25T07:19:37.950Z,92
2022-07-25T07:24:50.207Z,91.7
2022-07-25T07:29:43.039Z,91.4
2022-07-25T07:34:45.388Z,91.4
2022-07-25T07:39:48.036Z,91.3
2022-07-25T07:44:50.925Z,91
2022-07-25T07:49:53.222Z,90.9
2022-07-25T07:55:01.649Z,90.8
2022-07-25T08:00:04.341Z,89.1
2022-07-25T08:05:06.851Z,89.5
2022-07-25T08:15:10.008Z,85.3
2022-07-25T08:20:40.795Z,85.2
2022-07-25T08:25:13.233Z,85.6
2022-07-25T08:30:16.161Z,85
2022-07-25T08:35:18.580Z,84.9
2022-07-25T08:40:21.389Z,82.4
2022-07-25T08:45:24.197Z,83.1
2022-07-25T08:50:26.866Z,83.2
2022-07-25T08:55:29.184Z,83.1
2022-07-25T09:00:31.807Z,80.5
2022-07-25T09:05:37.995Z,80.4
2022-07-25T09:10:40.409Z,81.3
2022-07-25T09:15:43.874Z,79.5
2022-07-25T09:20:46.167Z,79.5
2022-07-25T09:25:48.463Z,77.5
2022-07-25T09:30:51.151Z,74.3
2022-07-25T09:35:53.571Z,74.3
2022-07-25T09:40:56.164Z,76.2
2022-07-25T09:45:58.862Z,80
2022-07-25T09:51:02.102Z,80
2022-07-25T09:56:04.579Z,77.5
2022-07-25T10:01:07.365Z,71.9
2022-07-25T10:06:10.011Z,72
2022-07-25T10:11:12.568Z,68.4
2022-07-25T10:16:15.004Z,68.3
2022-07-25T10:21:30.477Z,66
2022-07-25T10:26:22.999Z,65
2022-07-25T10:31:26.181Z,63.5
2022-07-25T10:36:28.609Z,63.4
2022-07-25T10:41:31.421Z,66.8
2022-07-25T10:46:34.281Z,67.4
2022-07-25T10:51:44.209Z,67.8
2022-07-25T10:56:46.554Z,67.6
2022-07-25T11:01:49.298Z,67.4
2022-07-25T11:06:52.229Z,65.7
2022-07-25T11:11:55.207Z,69.9
2022-07-25T11:16:58.232Z,68.1
2022-07-25T11:22:01.341Z,70.5
2022-07-25T11:27:13.147Z,69.2
2022-07-25T11:32:06.789Z,66.2
2022-07-25T11:37:09.450Z,65.3
2022-07-25T11:42:11.792Z,65.4
2022-07-25T11:47:14.630Z,67.3
2022-07-25T11:52:17.218Z,67.1
2022-07-25T12:02:26.470Z,63.5
2022-07-25T12:07:29.449Z,62.7
2022-07-25T12:12:32.442Z,63.8
2022-07-25T12:17:35.104Z,64.8
2022-07-25T12:22:37.333Z,64.7
2022-07-25T12:27:40.132Z,66.6
2022-07-25T12:32:42.899Z,68.6
2022-07-25T12:37:45.822Z,67.1
2022-07-25T12:42:48.460Z,66.9
2022-07-25T12:47:51.427Z,69.3
2022-07-25T12:52:53.719Z,69.3
2022-07-25T12:57:55.991Z,67.3
2022-07-25T13:02:59.222Z,67.8
2022-07-25T13:08:01.647Z,67.7
2022-07-25T13:13:04.095Z,67.8
2022-07-25T13:18:06.499Z,68.2
2022-07-25T13:23:08.787Z,67.8
2022-07-25T13:28:14.910Z,67.6
2022-07-25T13:33:18.810Z,69.2
2022-07-25T13:38:21.602Z,70.1
2022-07-25T13:43:24.267Z,70.2
2022-07-25T13:48:35.132Z,67.4
2022-07-25T13:53:32.940Z,68.2
2022-07-25T13:58:35.644Z,66.1
2022-07-25T14:03:41.016Z,67.2
2022-07-25T14:08:43.765Z,67.4
2022-07-25T14:13:46.052Z,67.5
2022-07-25T14:18:49.225Z,66.6
2022-07-25T14:23:51.519Z,66.4
2022-07-25T14:28:53.973Z,66.4
2022-07-25T14:33:56.309Z,67.9
2022-07-25T14:38:59.833Z,66.9
2022-07-25T14:44:02.401Z,66.9
2022-07-25T14:49:06.013Z,67.7
2022-07-25T14:54:08.607Z,67.6
2022-07-25T14:59:12.473Z,67.2
2022-07-25T15:04:15.193Z,66.9
2022-07-25T15:09:17.624Z,66.9
2022-07-25T15:14:19.968Z,67
2022-07-25T15:19:23.069Z,67.4
2022-07-25T15:25:21.781Z,67.4
2022-07-25T15:29:30.498Z,67.2
2022-07-25T15:34:32.794Z,67.3
2022-07-25T15:39:35.445Z,68.3
2022-07-25T15:44:38.065Z,68.2
2022-07-25T15:49:40.734Z,68.2
2022-07-25T15:54:43.009Z,68.2
2022-07-25T15:59:45.361Z,68.7
2022-07-25T16:04:48.126Z,68.3
2022-07-25T16:09:51.055Z,68.5
2022-07-25T16:14:53.466Z,68.5
2022-07-25T16:19:56.007Z,68.6
2022-07-25T16:24:58.323Z,68.4
2022-07-25T16:30:00.656Z,67.6
2022-07-25T16:35:03.525Z,67.6
2022-07-25T16:40:06.762Z,67.4
2022-07-25T16:45:09.119Z,67.7
2022-07-25T16:50:11.773Z,67
2022-07-25T16:55:14.093Z,67
2022-07-25T17:00:16.431Z,68.2
2022-07-25T17:05:20.143Z,67.5
2022-07-25T17:10:23.262Z,67.7
2022-07-25T17:15:25.585Z,67.7
2022-07-25T17:20:28.226Z,69.2
2022-07-25T17:25:30.775Z,69.2
2022-07-25T17:30:33.657Z,71
2022-07-25T17:35:36.218Z,71.2
2022-07-25T17:40:38.619Z,71.2
2022-07-25T17:45:41.227Z,73.9
2022-07-25T17:50:43.853Z,75.2
2022-07-25T17:55:47.560Z,78.6
2022-07-25T18:00:49.863Z,78.5
2022-07-25T18:05:52.541Z,80.6
2022-07-25T18:10:54.901Z,79.1
2022-07-25T18:15:57.707Z,80.3
2022-07-25T18:21:00.446Z,81.3
2022-07-25T18:26:04.012Z,81.3
2022-07-25T18:31:06.851Z,81.6
2022-07-25T18:36:10.806Z,80.8
2022-07-25T18:41:32.575Z,80.8
2022-07-25T18:46:17.307Z,80
2022-07-25T18:51:20.863Z,79.3
2022-07-25T18:56:23.933Z,81.1
2022-07-25T19:01:27.823Z,83.2
2022-07-25T19:06:32.134Z,82.9
2022-07-25T19:11:42.850Z,81.7
2022-07-25T19:16:45.548Z,81.8
2022-07-25T19:21:48.369Z,80.9
2022-07-25T19:26:51.736Z,80.7
2022-07-25T19:31:54.270Z,80.9
2022-07-25T19:36:57.327Z,81.8
2022-07-25T19:41:59.999Z,83.6
2022-07-25T19:47:09.801Z,83.8
2022-07-25T19:52:03.809Z,83.8
2022-07-25T20:02:07.212Z,88.2
2022-07-25T20:07:11.675Z,89.6
2022-07-25T20:12:14.261Z,89.6
2022-07-25T20:17:17.142Z,90.4
2022-07-25T20:22:19.798Z,90.4
2022-07-25T20:27:22.816Z,89.6
2022-07-25T20:32:25.309Z,89.5
2022-07-25T20:37:28.191Z,90
2022-07-25T20:42:30.497Z,90
2022-07-25T20:47:34.000Z,90.1
2022-07-25T20:52:36.347Z,90.7
2022-07-25T20:57:38.885Z,91
2022-07-25T21:02:41.637Z,90.6
2022-07-25T21:07:44.505Z,90.3
2022-07-25T21:12:48.755Z,90.3
2022-07-25T21:17:51.075Z,90.5
2022-07-25T21:22:54.104Z,90.6
2022-07-25T21:27:56.379Z,90.6
2022-07-25T21:32:58.879Z,90.7
2022-07-25T21:38:01.556Z,90.5
2022-07-25T21:43:03.898Z,90.5
2022-07-25T21:48:06.195Z,90.5
2022-07-25T21:53:09.621Z,90.1
2022-07-25T21:58:11.914Z,90.1
2022-07-25T22:03:14.190Z,90.5
2022-07-25T22:08:16.540Z,90.6
2022-07-25T22:13:18.991Z,90.6
2022-07-25T22:18:22.474Z,90.8
2022-07-25T22:23:30.586Z,90.1
2022-07-25T22:28:32.851Z,90.1
2022-07-25T22:33:35.149Z,89.6
2022-07-25T22:38:38.032Z,89.8
2022-07-25T22:44:01.781Z,90.1
2022-07-25T22:48:44.537Z,90.4
2022-07-25T22:53:46.930Z,90.4
2022-07-25T22:58:51.941Z,90.4
2022-07-25T23:03:54.824Z,90.4
2022-07-25T23:08:57.487Z,90.5
2022-07-25T23:13:59.729Z,90.5
2022-07-25T23:19:02.486Z,90.5
2022-07-25T23:24:04.960Z,90.5
2022-07-25T23:29:09.301Z,90.5
2022-07-25T23:34:12.390Z,90.5
2022-07-25T23:39:18.360Z,90.4
2022-07-25T23:44:24.065Z,90.6
2022-07-25T23:49:29.339Z,90.6
2022-07-25T23:59:32.789Z,90.9
